Time;durP1;ratioP1;P1;durP2;ratioP2;P2;SDS_P1;SDS_P2;PMS_P1;PMS_P2;Temp;Humidity;BMP_temperature;BMP_pressure;BME280_temperature;BME280_humidity;BME280_pressure;Samples;Min_cycle;Max_cycle;Signal;HPM_P1;HPM_P2
2021/06/01 00:00:51;;;;;;;5.90;2.47;;;15.70;99.90;;;;;;2106247;28;20020;-64
2021/06/01 00:01:52;;;;;;;7.00;2.43;;;15.80;99.70;;;;;;2104956;28;20139;-64
2021/06/01 00:02:53;;;;;;;6.07;2.72;;;15.90;99.50;;;;;;2109409;28;20776;-64
2021/06/01 00:03:54;;;;;;;4.57;2.70;;;15.90;99.10;;;;;;2112112;28;20028;-64
2021/06/01 00:04:54;;;;;;;5.20;2.70;;;16.00;99.40;;;;;;2107672;28;20013;-64
2021/06/01 00:05:55;;;;;;;6.53;2.85;;;16.00;99.30;;;;;;2104339;28;20520;-64
2021/06/01 00:06:55;;;;;;;7.28;2.95;;;16.00;99.70;;;;;;2103351;28;20475;-64
2021/06/01 00:07:56;;;;;;;7.40;2.65;;;16.00;99.40;;;;;;2098836;28;20017;-64
2021/06/01 00:08:57;;;;;;;5.60;2.80;;;16.00;99.40;;;;;;2094582;28;20043;-64
2021/06/01 00:09:58;;;;;;;6.00;2.95;;;16.00;99.50;;;;;;2101856;28;20020;-64
2021/06/01 00:10:58;;;;;;;5.50;2.50;;;16.00;99.70;;;;;;2102713;28;20012;-64
2021/06/01 00:11:59;;;;;;;4.43;2.58;;;16.00;99.40;;;;;;2103625;28;20035;-64
2021/06/01 00:13:00;;;;;;;4.30;2.97;;;15.90;99.80;;;;;;2098898;28;20427;-64
2021/06/01 00:14:01;;;;;;;6.10;2.60;;;15.90;99.90;;;;;;2096956;28;20495;-64
2021/06/01 00:15:03;;;;;;;6.43;2.80;;;15.90;99.50;;;;;;2106540;28;20089;-64
2021/06/01 00:16:05;;;;;;;5.95;2.33;;;15.90;99.30;;;;;;2106224;28;20028;-64
2021/06/01 00:17:06;;;;;;;4.50;2.72;;;15.80;99.50;;;;;;2106277;28;20386;-64
2021/06/01 00:18:06;;;;;;;11.32;2.50;;;15.90;99.50;;;;;;2106312;28;20028;-64
2021/06/01 00:19:08;;;;;;;6.97;2.70;;;15.90;99.00;;;;;;2106816;28;20046;-64
2021/06/01 00:20:10;;;;;;;5.13;2.58;;;15.90;99.50;;;;;;2097496;28;20033;-64
2021/06/01 00:21:11;;;;;;;;;;;15.90;99.30;;;;;;2098049;28;20028;-64
2021/06/01 00:22:12;;;;;;;5.70;2.83;;;15.90;99.70;;;;;;2089229;28;19991;-64
2021/06/01 00:23:12;;;;;;;8.35;2.55;;;15.90;99.60;;;;;;2095317;28;20476;-64
2021/06/01 00:24:13;;;;;;;5.10;2.42;;;15.90;99.40;;;;;;2106675;28;20024;-64
2021/06/01 00:25:14;;;;;;;5.05;2.53;;;15.90;99.50;;;;;;2095955;28;20073;-64
2021/06/01 00:26:15;;;;;;;8.25;2.60;;;15.90;99.00;;;;;;2097431;28;20067;-64
2021/06/01 00:27:15;;;;;;;3.13;2.42;;;15.90;99.20;;;;;;2100003;28;20028;-64
2021/06/01 00:28:16;;;;;;;4.20;2.50;;;15.90;99.10;;;;;;2104099;28;20039;-64
2021/06/01 00:29:17;;;;;;;5.90;2.28;;;15.90;99.10;;;;;;2106607;28;20103;-64
2021/06/01 00:30:18;;;;;;;10.20;2.90;;;15.90;99.30;;;;;;2102581;28;20144;-64
2021/06/01 00:31:19;;;;;;;4.50;2.78;;;15.80;99.30;;;;;;2097165;28;20035;-64
2021/06/01 00:32:20;;;;;;;13.02;2.60;;;15.80;99.60;;;;;;2097095;28;20017;-64
2021/06/01 00:33:21;;;;;;;6.30;2.60;;;15.80;99.80;;;;;;2094588;28;20070;-64
2021/06/01 00:34:21;;;;;;;5.22;2.55;;;15.70;99.70;;;;;;2089270;28;20505;-64
2021/06/01 00:35:22;;;;;;;5.97;3.00;;;15.70;99.90;;;;;;2097442;28;20115;-64
2021/06/01 00:36:23;;;;;;;3.85;2.50;;;15.70;99.90;;;;;;2105008;28;20020;-64
2021/06/01 00:37:23;;;;;;;4.82;2.60;;;15.60;99.90;;;;;;2096918;28;20491;-64
2021/06/01 00:38:24;;;;;;;6.65;2.70;;;15.60;99.90;;;;;;2097467;28;20074;-64
2021/06/01 00:39:25;;;;;;;4.65;2.67;;;15.50;99.90;;;;;;2098122;28;20074;-64
2021/06/01 00:40:26;;;;;;;5.57;3.00;;;15.40;99.90;;;;;;2105980;28;20020;-65
2021/06/01 00:41:26;;;;;;;4.45;2.60;;;15.40;99.90;;;;;;2097085;28;20545;-64
2021/06/01 00:42:27;;;;;;;6.00;3.00;;;15.30;99.90;;;;;;2097356;28;20024;-65
2021/06/01 00:43:28;;;;;;;5.60;2.90;;;15.30;99.90;;;;;;2097306;28;20017;-64
2021/06/01 00:44:28;;;;;;;6.13;3.10;;;15.20;99.90;;;;;;2103142;28;20023;-64
2021/06/01 00:45:29;;;;;;;4.25;2.75;;;15.20;99.90;;;;;;2098949;28;20070;-64
2021/06/01 00:46:30;;;;;;;5.05;2.40;;;15.20;99.90;;;;;;2098277;28;20114;-64
2021/06/01 00:47:31;;;;;;;8.18;2.70;;;15.20;99.90;;;;;;2097794;28;20082;-64
2021/06/01 00:48:31;;;;;;;6.20;2.90;;;15.20;99.90;;;;;;2102937;28;20031;-64
2021/06/01 00:49:32;;;;;;;7.30;3.08;;;15.10;99.90;;;;;;2097557;28;20031;-64
2021/06/01 00:50:33;;;;;;;4.35;2.95;;;15.10;99.90;;;;;;2097789;28;20440;-66
2021/06/01 00:51:34;;;;;;;5.25;2.75;;;15.10;99.90;;;;;;2107141;28;20028;-64
2021/06/01 00:52:34;;;;;;;8.50;2.78;;;15.10;99.90;;;;;;2104283;28;20089;-65
2021/06/01 00:53:36;;;;;;;4.20;2.63;;;15.10;99.90;;;;;;2104981;28;20020;-65
2021/06/01 00:54:37;;;;;;;;;;;15.10;99.90;;;;;;2098752;28;20016;-64
2021/06/01 00:55:38;;;;;;;9.07;2.75;;;15.10;99.90;;;;;;2105183;28;19908;-64
2021/06/01 00:56:41;;;;;;;4.63;2.58;;;15.00;99.90;;;;;;2095491;28;20127;-65
2021/06/01 00:57:42;;;;;;;7.05;2.80;;;15.00;99.90;;;;;;2097451;28;20031;-64
2021/06/01 00:58:43;;;;;;;7.53;2.80;;;15.00;99.90;;;;;;2102263;28;20104;-64
2021/06/01 00:59:43;;;;;;;5.20;2.60;;;15.00;99.90;;;;;;2097902;28;20251;-65
2021/06/01 01:02:05;;;;;;;9.43;2.95;;;14.90;99.90;;;;;;2100734;28;20045;-64
2021/06/01 01:03:07;;;;;;;7.78;3.33;;;14.90;99.90;;;;;;2097252;28;20023;-64
2021/06/01 01:04:08;;;;;;;4.50;3.30;;;14.80;99.90;;;;;;2101538;28;20524;-64
2021/06/01 01:05:12;;;;;;;6.35;3.25;;;14.80;99.90;;;;;;2098697;28;20028;-64
2021/06/01 01:06:46;;;;;;;5.75;3.33;;;14.70;99.90;;;;;;2105824;28;20027;-64
2021/06/01 01:08:05;;;;;;;5.15;3.10;;;14.60;99.90;;;;;;2097868;28;20017;-64
2021/06/01 01:09:12;;;;;;;3.53;2.78;;;14.50;99.90;;;;;;2094639;28;20101;-64
2021/06/01 01:10:15;;;;;;;8.95;3.53;;;14.40;99.90;;;;;;2097584;28;20020;-63
2021/06/01 01:11:34;;;;;;;4.55;3.17;;;14.30;99.90;;;;;;2096954;28;20033;-63
2021/06/01 01:12:43;;;;;;;3.70;2.95;;;14.30;99.90;;;;;;2098569;28;20036;-64
2021/06/01 01:13:56;;;;;;;5.80;3.30;;;14.20;99.90;;;;;;2097122;28;20052;-64
2021/06/01 01:15:00;;;;;;;;;;;14.00;99.90;;;;;;2097519;28;20110;-64
2021/06/01 01:16:03;;;;;;;5.32;3.20;;;13.90;99.90;;;;;;2089081;28;20410;-64
2021/06/01 01:17:07;;;;;;;8.57;3.88;;;13.90;99.90;;;;;;2097102;28;20531;-64
2021/06/01 01:18:16;;;;;;;6.43;3.22;;;13.80;99.90;;;;;;2102920;28;20043;-63
2021/06/01 01:19:37;;;;;;;7.65;3.15;;;13.80;99.90;;;;;;2095837;28;20035;-64
2021/06/01 01:20:56;;;;;;;7.68;2.92;;;13.70;99.90;;;;;;2097191;28;20028;-64
2021/06/01 01:21:57;;;;;;;5.22;3.00;;;13.70;99.90;;;;;;2097333;28;20059;-65
2021/06/01 01:23:01;;;;;;;7.05;2.88;;;13.70;99.90;;;;;;2101535;28;20619;-64
2021/06/01 01:24:32;;;;;;;4.53;3.00;;;13.70;99.90;;;;;;2105218;28;20028;-64
2021/06/01 01:26:10;;;;;;;5.78;2.83;;;13.70;99.90;;;;;;2062843;28;20031;-64
2021/06/01 01:27:24;;;;;;;6.10;2.78;;;13.80;99.90;;;;;;2105731;28;20395;-64
2021/06/01 01:28:33;;;;;;;3.60;2.85;;;13.80;99.90;;;;;;2098899;28;20024;-63
2021/06/01 01:29:33;;;;;;;4.55;3.00;;;13.90;99.90;;;;;;2097947;28;20029;-64
2021/06/01 01:30:45;;;;;;;5.43;2.88;;;14.00;99.90;;;;;;2097745;28;20017;-63
2021/06/01 01:31:58;;;;;;;4.00;2.85;;;14.10;99.90;;;;;;2104005;28;20032;-63
2021/06/01 01:32:59;;;;;;;10.48;2.55;;;14.10;99.90;;;;;;2105715;28;20469;-63
2021/06/01 01:34:03;;;;;;;4.78;2.63;;;14.20;99.90;;;;;;2105735;28;20024;-64
2021/06/01 01:35:05;;;;;;;6.25;2.67;;;14.20;99.90;;;;;;2103860;28;20051;-64
2021/06/01 01:36:11;;;;;;;5.25;2.45;;;14.30;99.90;;;;;;2103911;28;20028;-64
2021/06/01 01:37:12;;;;;;;3.80;2.28;;;14.40;99.90;;;;;;2105202;28;20016;-64
2021/06/01 01:38:14;;;;;;;5.60;2.58;;;14.50;99.90;;;;;;2101267;28;20028;-64
2021/06/01 01:39:15;;;;;;;7.35;2.42;;;14.50;99.90;;;;;;2096669;28;20028;-64
2021/06/01 01:40:17;;;;;;;4.53;2.58;;;14.60;99.90;;;;;;2095656;28;20700;-66
2021/06/01 01:41:20;;;;;;;5.70;2.38;;;14.60;99.90;;;;;;2098368;28;20032;-64
2021/06/01 01:42:21;;;;;;;4.07;2.53;;;14.70;99.90;;;;;;2103306;28;20519;-64
2021/06/01 01:43:25;;;;;;;6.97;2.35;;;14.70;99.90;;;;;;2101510;28;20408;-64
2021/06/01 01:44:29;;;;;;;7.97;2.40;;;14.70;99.90;;;;;;2106026;28;20024;-64
2021/06/01 01:45:33;;;;;;;4.20;2.25;;;14.70;99.90;;;;;;2106515;28;20031;-64
2021/06/01 01:48:58;;;;;;;5.47;2.45;;;14.80;99.90;;;;;;2112249;28;20093;-64
2021/06/01 01:50:01;;;;;;;10.25;2.45;;;14.80;99.90;;;;;;2114309;28;20398;-65
2021/06/01 01:51:12;;;;;;;5.88;2.50;;;14.80;99.90;;;;;;2114406;28;20023;-64
2021/06/01 01:52:13;;;;;;;3.03;2.10;;;14.80;99.90;;;;;;2103940;28;20028;-63
2021/06/01 01:53:15;;;;;;;3.45;2.40;;;14.80;99.90;;;;;;2096426;28;20033;-65
2021/06/01 01:54:17;;;;;;;;;;;14.90;99.90;;;;;;2105785;28;20103;-63
2021/06/01 01:55:19;;;;;;;10.07;2.70;;;14.90;99.90;;;;;;2101139;28;19910;-65
2021/06/01 01:56:21;;;;;;;;;;;14.90;99.90;;;;;;2105908;28;20609;-63
2021/06/01 01:57:23;;;;;;;8.23;2.00;;;14.90;99.90;;;;;;2114031;28;20485;-65
2021/06/01 01:58:24;;;;;;;6.13;2.38;;;14.90;99.90;;;;;;2105010;28;20024;-64
2021/06/01 01:59:26;;;;;;;6.25;2.42;;;15.00;99.90;;;;;;2105309;28;20507;-64
2021/06/01 02:00:26;;;;;;;;;;;15.00;99.90;;;;;;2103897;28;20055;-64
2021/06/01 02:01:32;;;;;;;6.20;2.33;;;15.00;99.90;;;;;;2104771;28;19908;-64
2021/06/01 02:02:32;;;;;;;4.25;2.38;;;15.00;99.90;;;;;;2110482;28;20035;-64
2021/06/01 02:03:35;;;;;;;6.45;2.60;;;15.00;99.90;;;;;;2107872;28;20016;-63
2021/06/01 02:04:37;;;;;;;8.48;2.58;;;14.90;99.90;;;;;;2110921;28;20031;-64
2021/06/01 02:05:38;;;;;;;5.90;2.40;;;14.90;99.90;;;;;;2109384;28;20621;-64
2021/06/01 02:06:39;;;;;;;6.97;2.35;;;14.90;99.90;;;;;;2096446;28;20020;-64
2021/06/01 02:07:40;;;;;;;5.93;2.22;;;14.90;99.90;;;;;;2104967;28;20056;-64
2021/06/01 02:08:41;;;;;;;3.65;2.33;;;14.90;99.90;;;;;;2113717;28;20072;-64
2021/06/01 02:09:42;;;;;;;3.88;2.08;;;14.90;99.90;;;;;;2113628;28;20030;-64
2021/06/01 02:10:42;;;;;;;7.30;2.55;;;14.90;99.90;;;;;;2103099;28;20012;-64
2021/06/01 02:11:43;;;;;;;4.03;2.50;;;14.90;99.90;;;;;;2096240;28;20020;-64
2021/06/01 02:12:44;;;;;;;3.22;2.42;;;14.90;99.90;;;;;;2106978;28;20660;-64
2021/06/01 02:13:45;;;;;;;5.85;2.53;;;14.90;99.90;;;;;;2113345;28;20032;-63
2021/06/01 02:14:46;;;;;;;7.78;2.90;;;14.90;99.90;;;;;;2104236;28;20577;-63
2021/06/01 02:15:47;;;;;;;6.68;2.50;;;14.90;99.90;;;;;;2104611;28;20032;-65
2021/06/01 02:16:48;;;;;;;6.07;3.03;;;14.80;99.90;;;;;;2113823;28;20495;-63
2021/06/01 02:17:49;;;;;;;6.38;2.50;;;14.80;99.90;;;;;;2104751;28;20047;-63
2021/06/01 02:18:50;;;;;;;5.57;2.60;;;14.80;99.90;;;;;;2107787;28;20622;-64
2021/06/01 02:19:51;;;;;;;5.75;2.53;;;14.80;99.90;;;;;;2106408;28;20078;-64
2021/06/01 02:20:54;;;;;;;5.53;2.40;;;14.70;99.90;;;;;;2104952;28;20548;-65
2021/06/01 02:23:50;;;;;;;4.90;2.35;;;14.70;99.90;;;;;;2105513;28;20550;-64
2021/06/01 02:25:04;;;;;;;7.50;2.80;;;14.70;99.90;;;;;;2096109;28;20048;-63
2021/06/01 02:26:42;;;;;;;7.38;2.50;;;14.70;99.90;;;;;;2100094;28;20055;-63
2021/06/01 02:28:02;;;;;;;4.63;2.55;;;14.60;99.90;;;;;;2108608;28;20086;-63
2021/06/01 02:29:08;;;;;;;6.20;2.75;;;14.60;99.90;;;;;;2113751;28;20019;-64
2021/06/01 02:30:12;;;;;;;9.07;3.03;;;14.60;99.90;;;;;;2114083;28;20018;-64
2021/06/01 02:31:26;;;;;;;5.18;2.83;;;14.60;99.90;;;;;;2108945;28;20016;-63
2021/06/01 02:32:39;;;;;;;6.28;3.03;;;14.60;99.90;;;;;;2103064;28;20541;-63
2021/06/01 02:33:43;;;;;;;7.70;2.63;;;14.60;99.90;;;;;;2104119;28;20023;-63
2021/06/01 02:34:46;;;;;;;4.55;2.30;;;14.70;99.90;;;;;;2101822;28;20032;-64
2021/06/01 02:35:48;;;;;;;5.68;2.28;;;14.70;99.90;;;;;;2104729;28;20101;-64
2021/06/01 02:36:52;;;;;;;9.15;2.50;;;14.70;99.90;;;;;;2104615;28;20062;-64
2021/06/01 02:37:53;;;;;;;7.45;2.63;;;14.70;99.90;;;;;;2113634;28;20388;-63
2021/06/01 02:38:56;;;;;;;7.07;2.33;;;14.70;99.90;;;;;;2108827;28;20118;-63
2021/06/01 02:39:58;;;;;;;5.35;2.08;;;14.70;99.90;;;;;;2100129;28;20583;-64
2021/06/01 02:41:03;;;;;;;3.72;2.53;;;14.80;99.90;;;;;;2096383;28;20029;-63
2021/06/01 02:42:06;;;;;;;5.53;2.00;;;14.90;99.80;;;;;;2105282;28;20039;-64
2021/06/01 02:43:09;;;;;;;4.72;2.42;;;14.90;99.80;;;;;;2113858;28;20549;-63
2021/06/01 02:44:11;;;;;;;3.95;2.20;;;14.90;99.50;;;;;;2113898;28;20054;-64
2021/06/01 02:45:15;;;;;;;7.75;2.40;;;15.00;99.30;;;;;;2104588;28;20023;-64
2021/06/01 02:46:18;;;;;;;4.57;2.30;;;15.00;99.20;;;;;;2096913;28;20020;-63
2021/06/01 02:47:19;;;;;;;6.95;2.40;;;15.10;99.30;;;;;;2103911;28;20036;-64
2021/06/01 02:48:21;;;;;;;4.47;2.20;;;15.10;99.40;;;;;;2105047;28;20035;-64
2021/06/01 02:49:22;;;;;;;6.40;2.60;;;15.10;99.20;;;;;;2105310;28;20016;-64
2021/06/01 02:50:24;;;;;;;4.80;2.45;;;15.10;99.20;;;;;;2101966;28;20111;-64
2021/06/01 02:51:25;;;;;;;9.82;2.75;;;15.10;99.10;;;;;;2104897;28;20055;-64
2021/06/01 02:52:26;;;;;;;4.57;2.20;;;15.10;99.00;;;;;;2114071;28;20016;-63
2021/06/01 02:53:27;;;;;;;3.30;2.10;;;15.10;98.90;;;;;;2112463;28;20031;-63
2021/06/01 02:54:28;;;;;;;4.38;2.45;;;15.10;98.90;;;;;;2105254;28;20086;-64
2021/06/01 02:55:29;;;;;;;3.90;2.47;;;15.20;98.70;;;;;;2111348;28;20024;-64
2021/06/01 02:56:31;;;;;;;6.60;2.20;;;15.20;98.70;;;;;;2105989;28;20024;-63
2021/06/01 02:57:32;;;;;;;4.03;2.13;;;15.20;98.60;;;;;;2113990;28;20659;-64
2021/06/01 02:58:33;;;;;;;6.13;2.85;;;15.20;98.60;;;;;;2104794;28;20016;-63
2021/06/01 02:59:37;;;;;;;6.25;2.42;;;15.20;98.60;;;;;;2096478;28;20447;-64
2021/06/01 03:00:39;;;;;;;7.78;2.40;;;15.30;98.40;;;;;;2104477;28;20053;-64
2021/06/01 03:01:39;;;;;;;7.50;2.33;;;15.40;98.10;;;;;;2104727;28;20016;-64
2021/06/01 03:02:40;;;;;;;4.47;2.30;;;15.40;98.10;;;;;;2107568;28;20035;-64
2021/06/01 03:03:52;;;;;;;4.00;2.33;;;15.40;98.00;;;;;;2108653;28;20020;-64
2021/06/01 03:04:54;;;;;;;7.03;2.40;;;15.50;98.00;;;;;;2104513;28;20138;-64
2021/06/01 03:05:55;;;;;;;6.43;2.40;;;15.50;97.80;;;;;;2096303;28;20025;-64
2021/06/01 03:06:55;;;;;;;7.53;2.20;;;15.60;97.90;;;;;;2096345;28;20028;-64
2021/06/01 03:08:21;;;;;;;5.28;2.42;;;15.60;97.80;;;;;;2088423;28;20549;-64
2021/06/01 03:09:21;;;;;;;6.15;2.10;;;15.60;97.70;;;;;;2099665;28;20103;-64
2021/06/01 03:10:23;;;;;;;7.60;2.22;;;15.60;97.50;;;;;;2104669;28;20020;-64
2021/06/01 03:11:24;;;;;;;3.67;2.08;;;15.60;97.70;;;;;;2105891;28;20089;-64
2021/06/01 03:12:41;;;;;;;7.68;2.28;;;15.70;97.50;;;;;;2106282;28;20676;-65
2021/06/01 03:13:43;;;;;;;8.10;2.30;;;15.60;97.40;;;;;;2110603;28;20056;-64
2021/06/01 03:14:43;;;;;;;4.70;2.30;;;15.70;97.40;;;;;;2111677;28;20397;-64
2021/06/01 03:15:44;;;;;;;4.63;2.00;;;15.70;97.30;;;;;;2113789;28;20031;-64
2021/06/01 03:16:45;;;;;;;4.35;1.90;;;15.70;97.40;;;;;;2104831;28;20671;-64
2021/06/01 03:17:45;;;;;;;4.95;2.70;;;15.70;97.20;;;;;;2104469;28;20525;-64
2021/06/01 03:18:47;;;;;;;6.90;2.15;;;15.70;97.20;;;;;;2107445;28;20073;-64
2021/06/01 03:19:47;;;;;;;6.03;2.22;;;15.70;97.20;;;;;;2107502;28;20036;-64
2021/06/01 03:20:49;;;;;;;5.93;2.30;;;15.80;97.20;;;;;;2113672;28;20050;-64
2021/06/01 03:21:50;;;;;;;4.93;2.05;;;15.70;97.20;;;;;;2110490;28;20036;-64
2021/06/01 03:22:50;;;;;;;3.40;1.90;;;15.80;97.10;;;;;;2113569;28;20020;-64
2021/06/01 03:23:53;;;;;;;8.32;2.65;;;15.70;97.20;;;;;;2108944;28;20020;-64
2021/06/01 03:24:54;;;;;;;3.55;2.03;;;15.80;97.30;;;;;;2107023;28;20069;-64
2021/06/01 03:25:54;;;;;;;11.32;2.42;;;15.80;96.90;;;;;;2105224;28;20032;-64
2021/06/01 03:26:55;;;;;;;6.45;2.40;;;15.80;96.80;;;;;;2111084;28;20026;-64
2021/06/01 03:27:56;;;;;;;6.15;2.25;;;15.80;96.80;;;;;;2099084;28;20024;-64
2021/06/01 03:28:56;;;;;;;6.07;2.25;;;15.80;96.90;;;;;;2096216;28;20488;-64
2021/06/01 03:29:57;;;;;;;4.47;2.30;;;15.80;96.70;;;;;;2096128;28;20404;-64
2021/06/01 03:30:58;;;;;;;4.85;2.17;;;15.80;96.80;;;;;;2104924;28;20020;-64
2021/06/01 03:31:59;;;;;;;8.65;2.30;;;15.80;96.80;;;;;;2104421;28;20519;-64
2021/06/01 03:32:59;;;;;;;5.70;2.20;;;15.80;96.90;;;;;;2096096;28;20056;-64
2021/06/01 03:34:00;;;;;;;4.22;2.10;;;15.80;96.60;;;;;;2104577;28;20101;-64
2021/06/01 03:35:01;;;;;;;5.28;2.13;;;15.80;96.70;;;;;;2106054;28;20024;-64
2021/06/01 03:36:02;;;;;;;6.68;2.20;;;15.80;96.70;;;;;;2112798;28;20380;-64
2021/06/01 03:37:03;;;;;;;5.85;2.28;;;15.90;96.60;;;;;;2106112;28;20024;-64
2021/06/01 03:38:05;;;;;;;4.13;2.10;;;15.90;96.50;;;;;;2106879;28;20032;-64
2021/06/01 03:39:08;;;;;;;7.93;1.92;;;15.90;96.50;;;;;;2105239;28;20103;-64
2021/06/01 03:40:09;;;;;;;6.60;2.22;;;15.90;96.50;;;;;;2101647;28;20123;-64
2021/06/01 03:41:10;;;;;;;7.50;2.38;;;15.90;96.40;;;;;;2096154;28;20087;-64
2021/06/01 03:42:12;;;;;;;4.25;2.13;;;15.90;96.40;;;;;;2104795;28;20081;-64
2021/06/01 03:43:13;;;;;;;9.40;2.45;;;15.90;96.30;;;;;;2112017;28;20008;-64
2021/06/01 03:44:14;;;;;;;5.15;2.55;;;15.90;96.30;;;;;;2105260;28;20575;-64
2021/06/01 03:45:15;;;;;;;6.25;2.20;;;15.90;96.30;;;;;;2101703;28;20152;-64
2021/06/01 03:46:16;;;;;;;6.13;2.10;;;15.90;96.20;;;;;;2096177;28;20035;-64
2021/06/01 03:47:16;;;;;;;8.98;2.55;;;16.00;96.10;;;;;;2095964;28;20020;-64
2021/06/01 03:48:17;;;;;;;3.90;2.15;;;16.00;96.10;;;;;;2096443;28;20028;-64
2021/06/01 03:49:18;;;;;;;5.90;2.20;;;16.00;96.00;;;;;;2101046;28;20410;-64
2021/06/01 03:50:19;;;;;;;6.13;2.13;;;16.00;96.00;;;;;;2099027;28;20063;-64
2021/06/01 03:51:19;;;;;;;5.30;2.00;;;16.00;96.00;;;;;;2101167;28;20059;-64
2021/06/01 03:52:20;;;;;;;7.10;2.38;;;16.00;95.90;;;;;;2098099;28;20024;-64
2021/06/01 03:53:20;;;;;;;2.92;2.00;;;16.10;95.70;;;;;;2100041;28;20029;-64
2021/06/01 03:54:21;;;;;;;3.78;1.90;;;16.10;95.70;;;;;;2115413;28;20031;-66
2021/06/01 03:55:22;;;;;;;6.57;2.40;;;16.10;95.70;;;;;;2115190;28;20497;-64
2021/06/01 03:56:23;;;;;;;5.00;2.22;;;16.10;95.70;;;;;;2115456;28;20094;-64
2021/06/01 03:57:24;;;;;;;6.43;1.98;;;16.20;95.50;;;;;;2108089;28;20452;-64
2021/06/01 03:58:24;;;;;;;6.47;2.10;;;16.20;95.60;;;;;;2108506;28;20020;-64
2021/06/01 03:59:25;;;;;;;5.53;2.05;;;16.20;95.50;;;;;;2110104;28;20020;-65
2021/06/01 04:00:31;;;;;;;7.18;1.60;;;16.20;95.50;;;;;;2111321;28;20034;-65
2021/06/01 04:01:32;;;;;;;3.15;2.00;;;16.20;95.40;;;;;;2104378;28;20125;-65
2021/06/01 04:02:32;;;;;;;6.32;2.20;;;16.20;95.50;;;;;;2101487;28;20028;-64
2021/06/01 04:03:39;;;;;;;3.75;2.53;;;16.20;95.50;;;;;;2103617;28;20020;-64
2021/06/01 04:04:40;;;;;;;4.75;2.05;;;16.20;95.50;;;;;;2107036;28;20016;-64
2021/06/01 04:05:41;;;;;;;6.70;1.98;;;16.20;95.40;;;;;;2100239;28;20664;-64
2021/06/01 04:06:41;;;;;;;6.05;2.00;;;16.20;95.40;;;;;;2104748;28;20028;-64
2021/06/01 04:07:44;;;;;;;5.90;2.42;;;16.20;95.50;;;;;;2106690;28;20073;-64
2021/06/01 04:08:45;;;;;;;3.40;1.83;;;16.20;95.40;;;;;;2098173;28;20408;-65
2021/06/01 04:09:46;;;;;;;10.75;2.40;;;16.20;95.40;;;;;;2097971;28;20020;-65
2021/06/01 04:10:46;;;;;;;4.63;2.08;;;16.20;95.50;;;;;;2110318;28;20028;-64
2021/06/01 04:11:47;;;;;;;6.50;2.33;;;16.20;95.30;;;;;;2104240;28;20511;-63
2021/06/01 04:12:48;;;;;;;6.63;2.30;;;16.20;95.30;;;;;;2097387;28;20047;-64
2021/06/01 04:13:48;;;;;;;6.22;2.00;;;16.20;95.20;;;;;;2090321;28;20108;-64
2021/06/01 04:14:49;;;;;;;4.07;2.03;;;16.20;95.20;;;;;;2104859;28;20064;-63
2021/06/01 04:15:50;;;;;;;6.45;2.20;;;16.20;95.20;;;;;;2115434;28;20454;-64
2021/06/01 04:16:50;;;;;;;5.00;2.03;;;16.30;95.20;;;;;;2115316;28;20036;-65
2021/06/01 04:17:51;;;;;;;4.43;2.20;;;16.20;95.10;;;;;;2106080;28;20020;-64
2021/06/01 04:18:52;;;;;;;4.70;2.20;;;16.30;95.10;;;;;;2109453;28;20031;-65
2021/06/01 04:19:53;;;;;;;4.97;2.30;;;16.30;95.10;;;;;;2107948;28;20028;-64
2021/06/01 04:20:53;;;;;;;2.83;2.05;;;16.30;95.00;;;;;;2103579;28;20024;-64
2021/06/01 04:21:54;;;;;;;4.78;2.10;;;16.30;95.00;;;;;;2106678;28;20027;-64
2021/06/01 04:22:55;;;;;;;3.75;2.17;;;16.30;95.00;;;;;;2108841;28;20092;-67
2021/06/01 04:23:55;;;;;;;3.92;2.25;;;16.30;95.00;;;;;;2106612;28;20388;-64
2021/06/01 04:24:56;;;;;;;5.85;1.92;;;16.30;94.90;;;;;;2103541;28;20024;-64
2021/06/01 04:25:57;;;;;;;10.38;2.30;;;16.40;95.00;;;;;;2108724;28;20530;-64
2021/06/01 04:26:59;;;;;;;6.95;2.30;;;16.40;94.90;;;;;;2108657;28;20402;-63
2021/06/01 04:28:00;;;;;;;5.30;1.95;;;16.30;94.90;;;;;;2102608;28;20115;-63
2021/06/01 04:29:00;;;;;;;4.00;2.17;;;16.30;94.90;;;;;;2105746;28;20024;-64
2021/06/01 04:30:02;;;;;;;4.85;2.15;;;16.40;94.80;;;;;;2114572;28;20008;-64
2021/06/01 04:31:03;;;;;;;5.32;2.35;;;16.40;94.70;;;;;;2113878;28;20027;-64
2021/06/01 04:32:04;;;;;;;4.95;2.08;;;16.40;94.70;;;;;;2106434;28;20059;-65
2021/06/01 04:33:05;;;;;;;9.05;2.40;;;16.40;94.70;;;;;;2106071;28;20023;-64
2021/06/01 04:34:06;;;;;;;7.55;2.17;;;16.40;94.60;;;;;;2102526;28;20034;-64
2021/06/01 04:35:07;;;;;;;4.25;2.22;;;16.50;94.70;;;;;;2105184;28;20020;-64
2021/06/01 04:36:07;;;;;;;4.63;2.07;;;16.50;94.60;;;;;;2097661;28;20024;-64
2021/06/01 04:37:08;;;;;;;3.88;1.88;;;16.50;94.60;;;;;;2097468;28;20800;-64
2021/06/01 04:38:09;;;;;;;5.82;1.90;;;16.50;94.60;;;;;;2100063;28;20119;-64
2021/06/01 04:39:10;;;;;;;8.80;2.70;;;16.50;94.70;;;;;;2090928;28;20028;-64
2021/06/01 04:40:14;;;;;;;5.70;2.03;;;16.50;94.60;;;;;;2094623;28;20028;-64
2021/06/01 04:41:15;;;;;;;9.68;2.53;;;16.50;94.70;;;;;;2103912;28;20051;-64
2021/06/01 04:42:16;;;;;;;6.85;2.20;;;16.60;94.70;;;;;;2106523;28;20077;-64
2021/06/01 04:43:16;;;;;;;12.20;2.08;;;16.60;94.60;;;;;;2108470;28;20016;-65
2021/06/01 04:44:17;;;;;;;5.53;2.00;;;16.60;94.70;;;;;;2106465;28;20016;-64
2021/06/01 04:45:18;;;;;;;3.33;2.05;;;16.60;94.50;;;;;;2111993;28;20024;-64
2021/06/01 04:46:19;;;;;;;5.57;2.13;;;16.60;94.60;;;;;;2105683;28;20050;-64
2021/06/01 04:47:19;;;;;;;9.68;1.95;;;16.60;94.50;;;;;;2105832;28;20506;-64
2021/06/01 04:48:20;;;;;;;6.05;2.17;;;16.60;94.50;;;;;;2114553;28;20016;-64
2021/06/01 04:49:21;;;;;;;4.53;2.03;;;16.70;94.50;;;;;;2111389;28;20016;-64
2021/06/01 04:50:21;;;;;;;7.18;2.28;;;16.70;94.40;;;;;;2109555;28;20145;-64
2021/06/01 04:51:23;;;;;;;5.47;2.20;;;16.70;94.50;;;;;;2106408;28;20017;-64
2021/06/01 04:52:24;;;;;;;6.32;2.08;;;16.80;94.40;;;;;;2097464;28;20032;-64
2021/06/01 04:53:24;;;;;;;3.22;1.70;;;16.90;94.40;;;;;;2091330;28;20636;-64
2021/06/01 04:54:25;;;;;;;3.28;1.73;;;17.00;94.20;;;;;;2097459;28;20039;-64
2021/06/01 04:55:26;;;;;;;6.72;2.33;;;17.30;93.80;;;;;;2095666;28;20476;-64
2021/06/01 04:56:27;;;;;;;9.23;1.92;;;17.70;93.30;;;;;;2096931;28;20029;-64
2021/06/01 04:57:28;;;;;;;6.22;2.40;;;18.20;92.80;;;;;;2105863;28;20020;-65
2021/06/01 04:58:29;;;;;;;7.25;1.85;;;18.70;92.20;;;;;;2097429;28;20032;-65
2021/06/01 04:59:29;;;;;;;4.20;1.63;;;19.10;91.90;;;;;;2095695;28;20543;-64
2021/06/01 05:00:30;;;;;;;4.88;2.10;;;19.50;91.10;;;;;;2091685;28;20500;-65
2021/06/01 05:01:31;;;;;;;3.95;1.98;;;19.80;90.70;;;;;;2102608;28;20426;-64
2021/06/01 05:02:31;;;;;;;3.67;1.88;;;20.20;90.50;;;;;;2102514;28;20115;-64
2021/06/01 05:03:32;;;;;;;4.85;1.98;;;20.40;90.20;;;;;;2097546;28;20032;-65
2021/06/01 05:04:33;;;;;;;4.70;1.80;;;20.70;89.90;;;;;;2105167;28;20020;-64
2021/06/01 05:05:34;;;;;;;5.07;1.70;;;20.90;89.50;;;;;;2103557;28;20024;-64
2021/06/01 05:06:35;;;;;;;5.18;1.73;;;21.20;88.80;;;;;;2097609;28;20054;-65
2021/06/01 05:07:36;;;;;;;9.32;2.30;;;21.30;88.30;;;;;;2104016;28;20077;-65
2021/06/01 05:08:37;;;;;;;3.60;1.92;;;21.60;87.90;;;;;;2101749;28;20027;-65
2021/06/01 05:09:38;;;;;;;6.18;1.95;;;21.80;87.40;;;;;;2102784;28;20020;-65
2021/06/01 05:10:38;;;;;;;4.80;1.95;;;21.80;87.00;;;;;;2096432;28;20771;-65
2021/06/01 05:11:39;;;;;;;7.68;1.90;;;21.80;86.90;;;;;;2095935;28;20024;-65
2021/06/01 05:12:40;;;;;;;4.25;2.20;;;21.70;87.20;;;;;;2099073;28;20020;-65
2021/06/01 05:13:41;;;;;;;5.75;1.92;;;21.70;87.30;;;;;;2096480;28;20034;-65
2021/06/01 05:14:41;;;;;;;7.47;2.08;;;21.80;87.40;;;;;;2101776;28;20038;-65
2021/06/01 05:15:44;;;;;;;6.88;2.47;;;21.90;86.60;;;;;;2097502;28;20029;-65
2021/06/01 05:16:44;;;;;;;6.13;2.15;;;22.00;86.20;;;;;;2097786;28;20027;-65
2021/06/01 05:17:45;;;;;;;7.82;2.10;;;21.90;86.60;;;;;;2099352;28;20539;-65
2021/06/01 05:18:46;;;;;;;5.78;2.15;;;22.10;86.30;;;;;;2098763;28;20600;-65
2021/06/01 05:19:46;;;;;;;5.43;1.98;;;22.40;86.10;;;;;;2103036;28;20408;-65
2021/06/01 05:20:47;;;;;;;6.22;1.88;;;22.40;85.50;;;;;;2102600;28;20095;-64
2021/06/01 05:21:48;;;;;;;3.90;1.92;;;22.40;85.80;;;;;;2103675;28;20050;-64
2021/06/01 05:22:49;;;;;;;5.93;2.08;;;22.30;85.60;;;;;;2098724;28;20024;-64
2021/06/01 05:23:49;;;;;;;5.93;2.17;;;22.10;86.10;;;;;;2097286;28;20031;-64
2021/06/01 05:24:50;;;;;;;6.05;2.10;;;21.90;86.30;;;;;;2103099;28;20095;-64
2021/06/01 05:25:53;;;;;;;5.85;2.20;;;21.70;86.70;;;;;;2096584;28;20029;-64
2021/06/01 05:26:54;;;;;;;5.18;1.92;;;21.50;87.40;;;;;;2097049;28;20017;-64
2021/06/01 05:27:54;;;;;;;5.70;1.90;;;21.40;87.90;;;;;;2096955;28;20039;-64
2021/06/01 05:28:55;;;;;;;5.63;2.20;;;21.40;87.70;;;;;;2098167;28;20158;-64
2021/06/01 05:30:02;;;;;;;12.25;2.33;;;21.40;87.50;;;;;;2098093;28;20116;-64
2021/06/01 05:33:23;;;;;;;6.82;1.70;;;22.00;86.50;;;;;;2100281;28;20175;-64
2021/06/01 05:34:24;;;;;;;8.55;1.90;;;22.20;85.90;;;;;;2097338;28;20538;-64